DLH1337 EBBR-EDDH
Flight info
| Callsign | DLH1337 |
|---|---|
| Flight time | 1h 2m |
| Altitude | 41000 |
| Route | NIK L191 VICOT N873 ANDIK M105 RIBSO RIBSO7A |
| Aircraft | A359/H-SDE2E3GHIJ3J4J5LM1ORWXY/LB1D1 |
Departure
| Time | 2026-05-07 19:14 |
|---|---|
| Airport | Brussels Airport (EBBR) |
Arrival
| Time | 2026-05-07 20:16 |
|---|---|
| Airport | Hamburg Helmut Schmidt Airport (EDDH) |
| Time | Latitude | Longitude | Altitude | Speed | Heading |
|---|---|---|---|---|---|
| 2026-05-07 18:04 | 50.90139 | 4.48913 | 136 ft | 0 kts | 155° |
| 2026-05-07 18:59 | 50.90140 | 4.48912 | 136 ft | 2 kts | 155° |
| 2026-05-07 19:00 | 50.90155 | 4.48901 | 136 ft | 2 kts | 155° |
| 2026-05-07 19:00 | 50.90170 | 4.48890 | 131 ft | 2 kts | 155° |
| 2026-05-07 19:00 | 50.90185 | 4.48879 | 134 ft | 2 kts | 118° |
| 2026-05-07 19:00 | 50.90188 | 4.48853 | 134 ft | 2 kts | 81° |
| 2026-05-07 19:01 | 50.90184 | 4.48831 | 133 ft | 1 kts | 68° |
| 2026-05-07 19:01 | 50.90184 | 4.48829 | 133 ft | 0 kts | 66° |
| 2026-05-07 19:04 | 50.90185 | 4.48831 | 129 ft | 1 kts | 66° |
| 2026-05-07 19:04 | 50.90192 | 4.48858 | 131 ft | 4 kts | 65° |
| 2026-05-07 19:05 | 50.90204 | 4.48901 | 127 ft | 4 kts | 65° |
| 2026-05-07 19:05 | 50.90229 | 4.48984 | 131 ft | 10 kts | 64° |
| 2026-05-07 19:05 | 50.90247 | 4.49041 | 125 ft | 7 kts | 68° |
| 2026-05-07 19:05 | 50.90270 | 4.49127 | 131 ft | 10 kts | 67° |
| 2026-05-07 19:06 | 50.90304 | 4.49246 | 132 ft | 13 kts | 65° |
| 2026-05-07 19:06 | 50.90395 | 4.49550 | 128 ft | 11 kts | 59° |
| 2026-05-07 19:06 | 50.90465 | 4.49597 | 127 ft | 13 kts | 13° |
| 2026-05-07 19:07 | 50.90562 | 4.49635 | 127 ft | 16 kts | 14° |
| 2026-05-07 19:07 | 50.90679 | 4.49683 | 127 ft | 18 kts | 14° |
| 2026-05-07 19:07 | 50.90739 | 4.49708 | 128 ft | 5 kts | 14° |
| 2026-05-07 19:07 | 50.90786 | 4.49727 | 129 ft | 6 kts | 14° |
| 2026-05-07 19:08 | 50.90789 | 4.49728 | 128 ft | 0 kts | 14° |
| 2026-05-07 19:08 | 50.90795 | 4.49730 | 128 ft | 5 kts | 14° |
| 2026-05-07 19:08 | 50.90863 | 4.49758 | 128 ft | 12 kts | 14° |
| 2026-05-07 19:09 | 50.90924 | 4.49794 | 124 ft | 5 kts | 27° |
| 2026-05-07 19:09 | 50.90949 | 4.49821 | 126 ft | 0 kts | 39° |
| 2026-05-07 19:09 | 50.90950 | 4.49823 | 126 ft | 2 kts | 39° |
| 2026-05-07 19:10 | 50.90992 | 4.49873 | 122 ft | 10 kts | 34° |
| 2026-05-07 19:10 | 50.91019 | 4.49897 | 124 ft | 0 kts | 26° |
| 2026-05-07 19:10 | 50.91025 | 4.49901 | 124 ft | 0 kts | 24° |
| 2026-05-07 19:12 | 50.91041 | 4.49912 | 123 ft | 9 kts | 24° |
| 2026-05-07 19:12 | 50.91109 | 4.49934 | 123 ft | 10 kts | 349° |
| 2026-05-07 19:12 | 50.91133 | 4.49896 | 124 ft | 2 kts | 273° |
| 2026-05-07 19:13 | 50.91126 | 4.49856 | 122 ft | 6 kts | 252° |
| 2026-05-07 19:13 | 50.91057 | 4.49606 | 123 ft | 46 kts | 246° |
| 2026-05-07 19:13 | 50.90865 | 4.48942 | 122 ft | 91 kts | 244° |
| 2026-05-07 19:13 | 50.90499 | 4.47673 | 134 ft | 159 kts | 245° |
| 2026-05-07 19:14 | 50.90057 | 4.46069 | 902 ft | 155 kts | 250° |
| 2026-05-07 19:14 | 50.90081 | 4.44409 | 1745 ft | 154 kts | 295° |
| 2026-05-07 19:14 | 50.90873 | 4.43308 | 2345 ft | 163 kts | 345° |
| 2026-05-07 19:14 | 50.91949 | 4.42980 | 3132 ft | 158 kts | 350° |
| 2026-05-07 19:15 | 50.93029 | 4.42497 | 3619 ft | 177 kts | 341° |
| 2026-05-07 19:15 | 50.94255 | 4.41630 | 4025 ft | 203 kts | 333° |
| 2026-05-07 19:15 | 50.95523 | 4.40487 | 4563 ft | 219 kts | 329° |
| 2026-05-07 19:15 | 50.96884 | 4.39144 | 5032 ft | 244 kts | 328° |
| 2026-05-07 19:16 | 50.98348 | 4.37636 | 5760 ft | 257 kts | 327° |
| 2026-05-07 19:16 | 50.99874 | 4.36038 | 6537 ft | 268 kts | 326° |
| 2026-05-07 19:16 | 51.01457 | 4.34371 | 6962 ft | 275 kts | 326° |
| 2026-05-07 19:16 | 51.03054 | 4.32683 | 7076 ft | 275 kts | 326° |
| 2026-05-07 19:17 | 51.04644 | 4.31000 | 7081 ft | 276 kts | 326° |
| 2026-05-07 19:17 | 51.06243 | 4.29305 | 7078 ft | 276 kts | 326° |
| 2026-05-07 19:17 | 51.07840 | 4.27611 | 7078 ft | 276 kts | 326° |
| 2026-05-07 19:17 | 51.09435 | 4.25917 | 7078 ft | 276 kts | 326° |
| 2026-05-07 19:18 | 51.11037 | 4.24216 | 7076 ft | 276 kts | 326° |
| 2026-05-07 19:18 | 51.12633 | 4.22518 | 7077 ft | 276 kts | 326° |
| 2026-05-07 19:18 | 51.14231 | 4.20818 | 7108 ft | 276 kts | 325° |
| 2026-05-07 19:18 | 51.15824 | 4.19119 | 7402 ft | 277 kts | 325° |
| 2026-05-07 19:19 | 51.17433 | 4.17400 | 8174 ft | 279 kts | 325° |
| 2026-05-07 19:19 | 51.18999 | 4.15636 | 9295 ft | 280 kts | 323° |
| 2026-05-07 19:19 | 51.20574 | 4.13770 | 10358 ft | 284 kts | 322° |
| 2026-05-07 19:19 | 51.22198 | 4.11806 | 10917 ft | 305 kts | 321° |
| 2026-05-07 19:20 | 51.23931 | 4.09707 | 11410 ft | 327 kts | 322° |
| 2026-05-07 19:20 | 51.25827 | 4.07519 | 11972 ft | 344 kts | 327° |
| 2026-05-07 19:20 | 51.28075 | 4.05932 | 12810 ft | 355 kts | 344° |
| 2026-05-07 19:20 | 51.30537 | 4.05275 | 13679 ft | 363 kts | 353° |
| 2026-05-07 19:21 | 51.33081 | 4.05024 | 14468 ft | 370 kts | 358° |
| 2026-05-07 19:21 | 51.35560 | 4.04985 | 15240 ft | 374 kts | 359° |
| 2026-05-07 19:21 | 51.38147 | 4.05028 | 16052 ft | 379 kts | 360° |
| 2026-05-07 19:21 | 51.40803 | 4.05077 | 16857 ft | 383 kts | 359° |
| 2026-05-07 19:22 | 51.43477 | 4.05099 | 17685 ft | 388 kts | 359° |
| 2026-05-07 19:22 | 51.46191 | 4.05202 | 18520 ft | 393 kts | 4° |
| 2026-05-07 19:22 | 51.48902 | 4.05998 | 19271 ft | 399 kts | 15° |
| 2026-05-07 19:22 | 51.51536 | 4.07479 | 20013 ft | 405 kts | 20° |
| 2026-05-07 19:23 | 51.54153 | 4.09248 | 20757 ft | 410 kts | 23° |
| 2026-05-07 19:23 | 51.56769 | 4.11180 | 21494 ft | 415 kts | 24° |
| 2026-05-07 19:23 | 51.59393 | 4.13187 | 22234 ft | 420 kts | 24° |
| 2026-05-07 19:23 | 51.62049 | 4.15230 | 22975 ft | 425 kts | 24° |
| 2026-05-07 19:24 | 51.64729 | 4.17277 | 23689 ft | 430 kts | 24° |
| 2026-05-07 19:24 | 51.67455 | 4.19340 | 24279 ft | 435 kts | 24° |
| 2026-05-07 19:24 | 51.70212 | 4.21411 | 24884 ft | 439 kts | 24° |
| 2026-05-07 19:24 | 51.72988 | 4.23488 | 25518 ft | 442 kts | 23° |
| 2026-05-07 19:25 | 51.75800 | 4.25586 | 26140 ft | 446 kts | 23° |
| 2026-05-07 19:25 | 51.78630 | 4.27698 | 26733 ft | 450 kts | 23° |
| 2026-05-07 19:25 | 51.81488 | 4.29842 | 27339 ft | 454 kts | 24° |
| 2026-05-07 19:25 | 51.84365 | 4.32007 | 27933 ft | 458 kts | 24° |
| 2026-05-07 19:26 | 51.87272 | 4.34199 | 28504 ft | 463 kts | 24° |
| 2026-05-07 19:26 | 51.90203 | 4.36412 | 29084 ft | 467 kts | 24° |
| 2026-05-07 19:26 | 51.93155 | 4.38643 | 29651 ft | 470 kts | 24° |
| 2026-05-07 19:26 | 51.96132 | 4.40896 | 30180 ft | 474 kts | 24° |
| 2026-05-07 19:27 | 51.98983 | 4.43055 | 30606 ft | 478 kts | 24° |
| 2026-05-07 19:27 | 52.02053 | 4.45385 | 31064 ft | 481 kts | 24° |
| 2026-05-07 19:27 | 52.04975 | 4.47605 | 31475 ft | 484 kts | 24° |
| 2026-05-07 19:27 | 52.08079 | 4.49968 | 31906 ft | 487 kts | 24° |
| 2026-05-07 19:28 | 52.11151 | 4.52309 | 32315 ft | 490 kts | 24° |
| 2026-05-07 19:28 | 52.14247 | 4.54673 | 32714 ft | 493 kts | 24° |
| 2026-05-07 19:28 | 52.17324 | 4.57025 | 33070 ft | 497 kts | 24° |
| 2026-05-07 19:28 | 52.20454 | 4.59420 | 33428 ft | 499 kts | 24° |
| 2026-05-07 19:29 | 52.23602 | 4.61834 | 33946 ft | 499 kts | 24° |
| 2026-05-07 19:29 | 52.26739 | 4.64249 | 34393 ft | 498 kts | 24° |
| 2026-05-07 19:29 | 52.29873 | 4.66661 | 34785 ft | 498 kts | 24° |
| 2026-05-07 19:29 | 52.33009 | 4.69076 | 35157 ft | 498 kts | 24° |
| 2026-05-07 19:30 | 52.36144 | 4.71493 | 35538 ft | 498 kts | 24° |
| 2026-05-07 19:30 | 52.39283 | 4.73918 | 35907 ft | 498 kts | 24° |
| 2026-05-07 19:30 | 52.42420 | 4.76344 | 36261 ft | 499 kts | 24° |
| 2026-05-07 19:30 | 52.45559 | 4.78776 | 36613 ft | 499 kts | 24° |
| 2026-05-07 19:31 | 52.48703 | 4.81220 | 36958 ft | 500 kts | 24° |
| 2026-05-07 19:31 | 52.51754 | 4.83971 | 37290 ft | 501 kts | 32° |
| 2026-05-07 19:31 | 52.54533 | 4.87407 | 37622 ft | 501 kts | 41° |
| 2026-05-07 19:31 | 52.56967 | 4.91518 | 37950 ft | 502 kts | 50° |
| 2026-05-07 19:32 | 52.59196 | 4.95918 | 38285 ft | 502 kts | 51° |
| 2026-05-07 19:32 | 52.61378 | 5.00428 | 38607 ft | 502 kts | 52° |
| 2026-05-07 19:32 | 52.63503 | 5.04914 | 38875 ft | 503 kts | 52° |
| 2026-05-07 19:32 | 52.65677 | 5.09531 | 39121 ft | 503 kts | 52° |
| 2026-05-07 19:33 | 52.67822 | 5.14084 | 39360 ft | 503 kts | 52° |
| 2026-05-07 19:33 | 52.69973 | 5.18637 | 39598 ft | 504 kts | 52° |
| 2026-05-07 19:33 | 52.72076 | 5.23154 | 39808 ft | 504 kts | 54° |
| 2026-05-07 19:33 | 52.73928 | 5.28163 | 40032 ft | 504 kts | 64° |
| 2026-05-07 19:34 | 52.75279 | 5.33288 | 40248 ft | 504 kts | 69° |
| 2026-05-07 19:34 | 52.76507 | 5.38626 | 40457 ft | 504 kts | 70° |
| 2026-05-07 19:34 | 52.77715 | 5.44151 | 40668 ft | 504 kts | 71° |
| 2026-05-07 19:34 | 52.78865 | 5.49546 | 40883 ft | 505 kts | 71° |
| 2026-05-07 19:35 | 52.80018 | 5.55006 | 41051 ft | 506 kts | 71° |
| 2026-05-07 19:35 | 52.81179 | 5.60508 | 41083 ft | 507 kts | 71° |
| 2026-05-07 19:35 | 52.83504 | 5.71497 | 41095 ft | 506 kts | 71° |
| 2026-05-07 19:36 | 52.85831 | 5.82489 | 41094 ft | 506 kts | 71° |
| 2026-05-07 19:36 | 52.88154 | 5.93502 | 41096 ft | 506 kts | 71° |
| 2026-05-07 19:37 | 52.90463 | 6.04510 | 41092 ft | 506 kts | 71° |
| 2026-05-07 19:37 | 52.92363 | 6.13617 | 41094 ft | 506 kts | 71° |
| 2026-05-07 19:38 | 52.95022 | 6.26434 | 41104 ft | 506 kts | 71° |
| 2026-05-07 19:38 | 52.97295 | 6.37458 | 41105 ft | 506 kts | 72° |
| 2026-05-07 19:39 | 52.99201 | 6.46749 | 41100 ft | 506 kts | 72° |
| 2026-05-07 19:39 | 53.01458 | 6.57807 | 41107 ft | 506 kts | 72° |
| 2026-05-07 19:40 | 53.03679 | 6.68748 | 41099 ft | 494 kts | 72° |
| 2026-05-07 19:40 | 53.05828 | 6.79391 | 41101 ft | 482 kts | 72° |
| 2026-05-07 19:41 | 53.07950 | 6.89962 | 41101 ft | 482 kts | 72° |
| 2026-05-07 19:41 | 53.10068 | 7.00575 | 41106 ft | 483 kts | 72° |
| 2026-05-07 19:42 | 53.12160 | 7.11105 | 41110 ft | 469 kts | 72° |
| 2026-05-07 19:42 | 53.14183 | 7.21330 | 41121 ft | 467 kts | 72° |
| 2026-05-07 19:43 | 53.16215 | 7.31672 | 41128 ft | 471 kts | 72° |
| 2026-05-07 19:43 | 53.18244 | 7.42051 | 40846 ft | 470 kts | 72° |
| 2026-05-07 19:44 | 53.19251 | 7.47233 | 40332 ft | 470 kts | 72° |
| 2026-05-07 19:44 | 53.20241 | 7.52353 | 39803 ft | 470 kts | 72° |
| 2026-05-07 19:44 | 53.21255 | 7.57609 | 39284 ft | 470 kts | 72° |
| 2026-05-07 19:44 | 53.22257 | 7.62802 | 38796 ft | 469 kts | 72° |
| 2026-05-07 19:45 | 53.23246 | 7.67924 | 38198 ft | 469 kts | 73° |
| 2026-05-07 19:45 | 53.24240 | 7.73098 | 37634 ft | 455 kts | 73° |
| 2026-05-07 19:45 | 53.25195 | 7.78093 | 36710 ft | 447 kts | 73° |
| 2026-05-07 19:45 | 53.26121 | 7.82947 | 35698 ft | 444 kts | 73° |
| 2026-05-07 19:46 | 53.27059 | 7.87877 | 35126 ft | 445 kts | 73° |
| 2026-05-07 19:46 | 53.27987 | 7.92766 | 34803 ft | 439 kts | 73° |
| 2026-05-07 19:46 | 53.28902 | 7.97596 | 34373 ft | 434 kts | 73° |
| 2026-05-07 19:46 | 53.29807 | 8.02379 | 33345 ft | 426 kts | 73° |
| 2026-05-07 19:47 | 53.30697 | 8.07100 | 32252 ft | 426 kts | 73° |
| 2026-05-07 19:47 | 53.31609 | 8.11814 | 31744 ft | 425 kts | 71° |
| 2026-05-07 19:47 | 53.32960 | 8.16166 | 31325 ft | 421 kts | 53° |
| 2026-05-07 19:47 | 53.34998 | 8.19603 | 30892 ft | 415 kts | 36° |
| 2026-05-07 19:48 | 53.37493 | 8.21878 | 29995 ft | 405 kts | 19° |
| 2026-05-07 19:48 | 53.40227 | 8.22855 | 28820 ft | 400 kts | 5° |
| 2026-05-07 19:48 | 53.42980 | 8.23252 | 27755 ft | 395 kts | 4° |
| 2026-05-07 19:48 | 53.45708 | 8.23567 | 26776 ft | 389 kts | 4° |
| 2026-05-07 19:49 | 53.48391 | 8.23868 | 25823 ft | 383 kts | 3° |
| 2026-05-07 19:49 | 53.50947 | 8.24156 | 24915 ft | 378 kts | 4° |
| 2026-05-07 19:49 | 53.53557 | 8.24449 | 23913 ft | 374 kts | 4° |
| 2026-05-07 19:49 | 53.56163 | 8.24740 | 22458 ft | 379 kts | 3° |
| 2026-05-07 19:50 | 53.58772 | 8.25033 | 21188 ft | 378 kts | 3° |
| 2026-05-07 19:50 | 53.61419 | 8.25334 | 20019 ft | 373 kts | 3° |
| 2026-05-07 19:50 | 53.63982 | 8.25633 | 18699 ft | 375 kts | 3° |
| 2026-05-07 19:50 | 53.66604 | 8.25949 | 17345 ft | 372 kts | 3° |
| 2026-05-07 19:51 | 53.69135 | 8.26261 | 16107 ft | 366 kts | 4° |
| 2026-05-07 19:51 | 53.71661 | 8.26573 | 14929 ft | 360 kts | 3° |
| 2026-05-07 19:51 | 53.74146 | 8.26882 | 13599 ft | 357 kts | 4° |
| 2026-05-07 19:51 | 53.76622 | 8.27185 | 12267 ft | 356 kts | 4° |
| 2026-05-07 19:52 | 53.79096 | 8.27473 | 11495 ft | 355 kts | 4° |
| 2026-05-07 19:52 | 53.81495 | 8.27742 | 11162 ft | 331 kts | 4° |
| 2026-05-07 19:52 | 53.83677 | 8.27984 | 11097 ft | 300 kts | 4° |
| 2026-05-07 19:52 | 53.85725 | 8.28283 | 11097 ft | 295 kts | 8° |
| 2026-05-07 19:53 | 53.87685 | 8.29262 | 11105 ft | 294 kts | 25° |
| 2026-05-07 19:53 | 53.89329 | 8.31277 | 11108 ft | 293 kts | 47° |
| 2026-05-07 19:53 | 53.90350 | 8.34232 | 11107 ft | 293 kts | 73° |
| 2026-05-07 19:53 | 53.90515 | 8.37645 | 11113 ft | 292 kts | 96° |
| 2026-05-07 19:54 | 53.90203 | 8.41068 | 11109 ft | 296 kts | 100° |
| 2026-05-07 19:54 | 53.89851 | 8.44509 | 11104 ft | 295 kts | 99° |
| 2026-05-07 19:54 | 53.89517 | 8.47926 | 11106 ft | 294 kts | 99° |
| 2026-05-07 19:54 | 53.89191 | 8.51349 | 11101 ft | 294 kts | 99° |
| 2026-05-07 19:55 | 53.88871 | 8.54761 | 11104 ft | 293 kts | 99° |
| 2026-05-07 19:55 | 53.88551 | 8.58182 | 11105 ft | 293 kts | 99° |
| 2026-05-07 19:55 | 53.88233 | 8.61599 | 11105 ft | 293 kts | 99° |
| 2026-05-07 19:55 | 53.87915 | 8.65009 | 11104 ft | 293 kts | 99° |
| 2026-05-07 19:56 | 53.87596 | 8.68422 | 11102 ft | 294 kts | 99° |
| 2026-05-07 19:56 | 53.87279 | 8.71805 | 11100 ft | 294 kts | 99° |
| 2026-05-07 19:56 | 53.86955 | 8.75262 | 11103 ft | 293 kts | 99° |
| 2026-05-07 19:56 | 53.86713 | 8.77830 | 11103 ft | 294 kts | 99° |
| 2026-05-07 19:57 | 53.86417 | 8.80955 | 11103 ft | 293 kts | 99° |
| 2026-05-07 19:57 | 53.86098 | 8.84326 | 11102 ft | 293 kts | 99° |
| 2026-05-07 19:57 | 53.85783 | 8.87642 | 11105 ft | 294 kts | 99° |
| 2026-05-07 19:57 | 53.85644 | 8.89100 | 11103 ft | 294 kts | 99° |
| 2026-05-07 19:58 | 53.85318 | 8.92522 | 11103 ft | 294 kts | 99° |
| 2026-05-07 19:58 | 53.84992 | 8.95932 | 11102 ft | 294 kts | 99° |
| 2026-05-07 19:58 | 53.84663 | 8.99352 | 11104 ft | 293 kts | 99° |
| 2026-05-07 19:58 | 53.84335 | 9.02758 | 11105 ft | 293 kts | 99° |
| 2026-05-07 19:59 | 53.84005 | 9.06172 | 11108 ft | 293 kts | 99° |
| 2026-05-07 19:59 | 53.83676 | 9.09579 | 11111 ft | 293 kts | 99° |
| 2026-05-07 19:59 | 53.83344 | 9.12989 | 11102 ft | 293 kts | 99° |
| 2026-05-07 19:59 | 53.83012 | 9.16392 | 10929 ft | 294 kts | 99° |
| 2026-05-07 20:00 | 53.82681 | 9.19780 | 10555 ft | 293 kts | 99° |
| 2026-05-07 20:00 | 53.82346 | 9.23194 | 10236 ft | 288 kts | 99° |
| 2026-05-07 20:00 | 53.82021 | 9.26500 | 10021 ft | 290 kts | 99° |
| 2026-05-07 20:00 | 53.81685 | 9.29900 | 9720 ft | 289 kts | 99° |
| 2026-05-07 20:01 | 53.81252 | 9.33155 | 9357 ft | 285 kts | 107° |
| 2026-05-07 20:01 | 53.80443 | 9.36165 | 8968 ft | 282 kts | 121° |
| 2026-05-07 20:01 | 53.79488 | 9.38647 | 8602 ft | 280 kts | 123° |
| 2026-05-07 20:01 | 53.78399 | 9.41346 | 8210 ft | 277 kts | 123° |
| 2026-05-07 20:02 | 53.77291 | 9.43994 | 7831 ft | 275 kts | 127° |
| 2026-05-07 20:02 | 53.75840 | 9.46087 | 7457 ft | 274 kts | 151° |
| 2026-05-07 20:02 | 53.74033 | 9.46897 | 7270 ft | 268 kts | 177° |
| 2026-05-07 20:02 | 53.72282 | 9.46361 | 7131 ft | 251 kts | 202° |
| 2026-05-07 20:03 | 53.70823 | 9.44837 | 6919 ft | 249 kts | 217° |
| 2026-05-07 20:03 | 53.69343 | 9.43357 | 6547 ft | 248 kts | 197° |
| 2026-05-07 20:03 | 53.67661 | 9.43180 | 6264 ft | 241 kts | 166° |
| 2026-05-07 20:03 | 53.66138 | 9.44225 | 6049 ft | 235 kts | 152° |
| 2026-05-07 20:04 | 53.64596 | 9.45164 | 5977 ft | 237 kts | 163° |
| 2026-05-07 20:04 | 53.62991 | 9.45830 | 5989 ft | 238 kts | 165° |
| 2026-05-07 20:04 | 53.61381 | 9.46470 | 5988 ft | 238 kts | 165° |
| 2026-05-07 20:04 | 53.59766 | 9.47112 | 5995 ft | 238 kts | 165° |
| 2026-05-07 20:05 | 53.58164 | 9.47749 | 5819 ft | 235 kts | 165° |
| 2026-05-07 20:05 | 53.56592 | 9.48370 | 5511 ft | 235 kts | 165° |
| 2026-05-07 20:05 | 53.54996 | 9.48931 | 5205 ft | 235 kts | 171° |
| 2026-05-07 20:05 | 53.53368 | 9.48716 | 4926 ft | 235 kts | 191° |
| 2026-05-07 20:06 | 53.51786 | 9.48039 | 4656 ft | 235 kts | 193° |
| 2026-05-07 20:06 | 53.50222 | 9.47303 | 4383 ft | 233 kts | 194° |
| 2026-05-07 20:06 | 53.48664 | 9.46557 | 4108 ft | 232 kts | 194° |
| 2026-05-07 20:06 | 53.47104 | 9.45810 | 3819 ft | 231 kts | 193° |
| 2026-05-07 20:07 | 53.45527 | 9.45589 | 3462 ft | 227 kts | 167° |
| 2026-05-07 20:07 | 53.44137 | 9.46708 | 3152 ft | 221 kts | 136° |
| 2026-05-07 20:07 | 53.43359 | 9.48845 | 2995 ft | 215 kts | 103° |
| 2026-05-07 20:07 | 53.43374 | 9.51332 | 2994 ft | 217 kts | 79° |
| 2026-05-07 20:08 | 53.43764 | 9.53790 | 2986 ft | 218 kts | 74° |
| 2026-05-07 20:08 | 53.44204 | 9.56197 | 2983 ft | 212 kts | 74° |
| 2026-05-07 20:08 | 53.44628 | 9.58483 | 2976 ft | 198 kts | 74° |
| 2026-05-07 20:08 | 53.45024 | 9.60600 | 3002 ft | 181 kts | 74° |
| 2026-05-07 20:09 | 53.45444 | 9.62547 | 3001 ft | 177 kts | 66° |
| 2026-05-07 20:09 | 53.46068 | 9.64327 | 2996 ft | 178 kts | 57° |
| 2026-05-07 20:09 | 53.46818 | 9.65991 | 2994 ft | 178 kts | 54° |
| 2026-05-07 20:10 | 53.48323 | 9.69109 | 2994 ft | 169 kts | 52° |
| 2026-05-07 20:10 | 53.49080 | 9.70628 | 3000 ft | 169 kts | 52° |
| 2026-05-07 20:10 | 53.49832 | 9.72144 | 3001 ft | 169 kts | 53° |
| 2026-05-07 20:10 | 53.50585 | 9.73669 | 3002 ft | 169 kts | 53° |
| 2026-05-07 20:11 | 53.51334 | 9.75192 | 2998 ft | 170 kts | 53° |
| 2026-05-07 20:11 | 53.52077 | 9.76702 | 3001 ft | 169 kts | 53° |
| 2026-05-07 20:11 | 53.52843 | 9.78251 | 2912 ft | 169 kts | 53° |
| 2026-05-07 20:11 | 53.53582 | 9.79739 | 2693 ft | 168 kts | 53° |
| 2026-05-07 20:12 | 53.54326 | 9.81239 | 2456 ft | 165 kts | 53° |
| 2026-05-07 20:12 | 53.55057 | 9.82706 | 2219 ft | 160 kts | 53° |
| 2026-05-07 20:12 | 53.55740 | 9.84085 | 2015 ft | 147 kts | 53° |
| 2026-05-07 20:12 | 53.56374 | 9.85365 | 1803 ft | 137 kts | 54° |
| 2026-05-07 20:13 | 53.56964 | 9.86557 | 1628 ft | 128 kts | 53° |
| 2026-05-07 20:13 | 53.57519 | 9.87677 | 1463 ft | 123 kts | 53° |
| 2026-05-07 20:13 | 53.58069 | 9.88789 | 1306 ft | 124 kts | 53° |
| 2026-05-07 20:13 | 53.58620 | 9.89903 | 1128 ft | 123 kts | 53° |
| 2026-05-07 20:14 | 53.59167 | 9.91021 | 971 ft | 125 kts | 53° |
| 2026-05-07 20:14 | 53.59723 | 9.92183 | 752 ft | 128 kts | 53° |
| 2026-05-07 20:14 | 53.60294 | 9.93311 | 597 ft | 124 kts | 49° |
| 2026-05-07 20:14 | 53.60870 | 9.94417 | 431 ft | 131 kts | 50° |
| 2026-05-07 20:15 | 53.61462 | 9.95622 | 240 ft | 134 kts | 51° |
| 2026-05-07 20:15 | 53.62042 | 9.96794 | 60 ft | 127 kts | 49° |
| 2026-05-07 20:15 | 53.62557 | 9.97843 | 47 ft | 97 kts | 51° |
| 2026-05-07 20:15 | 53.62918 | 9.98582 | 51 ft | 73 kts | 50° |
| 2026-05-07 20:16 | 53.63183 | 9.99116 | 53 ft | 48 kts | 50° |
| 2026-05-07 20:16 | 53.63298 | 9.99401 | 53 ft | 12 kts | 84° |
| 2026-05-07 20:16 | 53.63290 | 9.99536 | 52 ft | 4 kts | 100° |
| 2026-05-07 20:16 | 53.63283 | 9.99601 | 52 ft | 4 kts | 100° |
| 2026-05-07 20:17 | 53.63281 | 9.99613 | 53 ft | 0 kts | 99° |
| 2026-05-07 20:17 | 53.63281 | 9.99614 | 53 ft | 1 kts | 100° |
| 2026-05-07 20:17 | 53.63275 | 9.99714 | 52 ft | 14 kts | 88° |
| 2026-05-07 20:18 | 53.63327 | 9.99861 | 47 ft | 16 kts | 50° |
| 2026-05-07 20:18 | 53.63358 | 9.99923 | 47 ft | 1 kts | 50° |
| 2026-05-07 20:18 | 53.63372 | 9.99950 | 52 ft | 5 kts | 50° |
| 2026-05-07 20:18 | 53.63384 | 9.99974 | 51 ft | 0 kts | 50° |
| 2026-05-07 20:20 | 53.63392 | 9.99991 | 55 ft | 6 kts | 50° |
| 2026-05-07 20:20 | 53.63426 | 10.00063 | 51 ft | 9 kts | 59° |
| 2026-05-07 20:20 | 53.63411 | 10.00154 | 50 ft | 6 kts | 120° |
| 2026-05-07 20:20 | 53.63369 | 10.00190 | 48 ft | 9 kts | 168° |
| 2026-05-07 20:21 | 53.63308 | 10.00203 | 52 ft | 7 kts | 175° |
| 2026-05-07 20:21 | 53.63278 | 10.00225 | 49 ft | 4 kts | 133° |
| 2026-05-07 20:21 | 53.63276 | 10.00277 | 51 ft | 6 kts | 87° |
| 2026-05-07 20:21 | 53.63277 | 10.00312 | 52 ft | 0 kts | 86° |
| 2026-05-07 20:22 | 53.63278 | 10.00331 | 55 ft | 3 kts | 85° |
| 2026-05-07 20:22 | 53.63279 | 10.00353 | 55 ft | 0 kts | 85° |
| 2026-05-07 20:22 | 53.63279 | 10.00356 | 55 ft | 2 kts | 85° |
| 2026-05-07 20:22 | 53.63279 | 10.00362 | 55 ft | 0 kts | 85° |